Minatare, NE (69356)

4:16 PM MST on February 08, 2016 (GMT -0700)
KNEB Radio | | Change Station
CLOSE
Current Station
Personal Weather Station
Location: Scottsbluff, NE
Elevation: 3878 ft
Nearby Weather Stations

Elev 3878 ft 41.86 °N, 103.64 °W | Updated 13 minutes ago

Overcast
Overcast
41.6 °F
Feels Like 37 °F
N
7.0
Wind Variable Wind from NW
Gusts 11.0 mph

Today
High -- | Low -- °F
--% Chance of Precip.
Yesterday
High -- | Low -- °F
Precip. -- in
Pressure 30.37 in
Visibility 10.0 miles
Clouds Overcast 6500 ft
Windchill 37 °F
Dew Point 29 °F
Humidity 62%
Rainfall 0.00 in
Snow Depth Not available.
6:59 AM 5:18 PM
New Moon, 0% visible
METAR KBFF 082253Z AUTO 31010KT 10SM OVC065 05/M02 A3029 RMK AO2 SLP282 T00501022
Pressure 30.37 in
Visibility 10.0 miles
Clouds Overcast 6500 ft
Windchill 37 °F
Dew Point 29 °F
Humidity 62%
Rainfall 0.00 in
Snow Depth Not available.
6:59 AM 5:18 PM
New Moon, 0% visible
METAR KBFF 082253Z AUTO 31010KT 10SM OVC065 05/M02 A3029 RMK AO2 SLP282 T00501022

10-Day Weather Forecast

Almanac

Astronomy

Feb. 08, 2016 Rise Set
Actual Time
Civil Twilight
Nautical Twilight
Astronomical Twilight
Moon
Length of Visible Light
Length of Day
Tomorrow will be .
, % of the Moon is Illuminated

Today's Extremes

State Highs State Lows

Community

WunderPhotos

Upload Photos

1,891,525 photos uploaded!

WunderBlog® & News

Nearby

Air Quality

  Air Quality AQ Index Pollutant
Not available.

Snow Depth

Station Depth Elevation

Earthquake Activity

City Distance Mag. Time & Date
Minimum magnitude displayed is 2.5.

Coastal Water Temperatures

Place Temperature

Stations

Nearby Weather Stations

Station Location Temp. Windchill Dew Point Humidity Wind Precip. Elev Updated Type
                   

Watches & Warnings

There are currently no watches in effect.